Flight Track Log - Related Links

Times and Time Zones

All times are in EDT time to prevent confusion due to time zone crossing. See the N75AW flight status page for this flight to view local times or setup timezone preferences in your user account.

Time Position Orientation Groundspeed Altitude Reporting Facility
EDT Latitude Longitude Course Direction KTS MPH feet Rate Location/Type
Wed 09:48:42 AM 25.4783 -76.9969 270° West 271 312 12,300  Level Miami Center
Wed 09:49:42 AM 25.4783 -77.0544 270° West 236 272 14,300 2,050 Climbing Miami Center
Wed 09:50:42 AM 25.4803 -77.1097 272° West 200 230 16,400 1,950 Climbing Miami Center
Wed 09:51:42 AM 25.4803 -77.1625 270° West 188 216 18,200 1,800 Climbing Miami Center
Wed 09:52:42 AM 25.4822 -77.2156 272° West 178 205 20,000 1,700 Climbing Miami Center
Wed 09:53:42 AM 25.4819 -77.2708 270° West 178 205 21,600 1,050 Climbing Miami Center
Wed 09:54:42 AM 25.4839 -77.3283 272° West 178 205 22,100 250 Climbing Miami Center
Wed 09:55:42 AM 25.4858 -77.4044 272° West 212 244 22,100  Level Miami Center
Wed 09:56:42 AM 25.4897 -77.4781 273° West 250 288 22,100  Level Miami Center
Wed 09:57:42 AM 25.4892 -77.5608 270° West 270 311 22,100  Level Miami Center
Wed 09:58:42 AM 25.4889 -77.6461 270° West 275 316 22,100  Level Miami Center
Wed 09:59:42 AM 25.4883 -77.7314 270° West 275 316 22,100 -50 Level Miami Center
Wed 10:00:42 AM 25.4900 -77.8142 271° West 275 316 22,000 -50 Descending Miami Center
Wed 10:01:42 AM 25.4914 -77.8972 271° West 270 311 22,000 50 Level Miami Center
Wed 10:02:42 AM 25.4931 -77.9800 271° West 270 311 22,100 50 Climbing Miami Center
Wed 10:03:42 AM 25.4922 -78.0653 269° West 270 311 22,100  Level Miami Center
Wed 10:04:42 AM 25.4958 -78.1481 273° West 270 311 22,100  Level Miami Center
Wed 10:05:42 AM 25.4950 -78.2333 269° West 270 311 22,100  Level Miami Center
Wed 10:06:42 AM 25.4983 -78.3186 272° West 275 316 22,100  Level Miami Center
Wed 10:07:42 AM 25.4975 -78.4036 269° West 275 316 22,100  Level Miami Center
Wed 10:08:42 AM 25.5008 -78.4867 273° West 275 316 22,100  Level Miami Center
Wed 10:09:42 AM 25.5019 -78.5786 271° West 269 310 22,100  Level Miami Center
Wed 10:10:42 AM 25.4986 -78.6617 267° West 269 310 22,100  Level Miami Center
Wed 10:11:42 AM 25.4997 -78.7467 271° West 274 315 22,100  Level Miami Center
Wed 10:12:42 AM 25.4986 -78.8319 269° West 274 315 22,100  Level Miami Center
Wed 10:13:42 AM 25.5017 -78.9147 272° West 274 315 22,100  Level Miami Center
Wed 10:15:00 AM 25.5017 -79.0178 270° West  Level FlightAware Approximate
Wed 10:15:42 AM 25.5036 -79.0692 270° West 275 316 22,100  Level Miami Center
Wed 10:16:42 AM 25.5067 -79.1475 272° West 275 316 22,100  Level Miami Center
Wed 10:17:42 AM 25.5053 -79.2372 269° West 275 316 22,100  Level Miami Center
Wed 10:18:42 AM 25.5039 -79.3225 269° West 275 316 22,100  Level Miami Center
Wed 10:19:42 AM 25.5044 -79.4053 270° West 275 316 22,100  Level Miami Center
Wed 10:20:42 AM 25.5050 -79.4881 270° West 275 316 22,100  Level Miami Center
Wed 10:21:42 AM 25.5056 -79.5733 270° West 275 316 22,100  Level Miami Center
Wed 10:22:42 AM 25.5042 -79.6561 269° West 275 316 22,100  Level Miami Center
Wed 10:23:42 AM 25.5044 -79.7414 270° West 275 316 22,100  Level Miami Center
Wed 10:24:42 AM 25.5031 -79.8242 269° West 275 316 22,100  Level Miami Center
Wed 10:25:42 AM 25.5011 -79.9069 269° West 275 316 22,100  Level Miami Center
Wed 10:26:42 AM 25.5017 -79.9922 270° West 275 316 22,100  Level Miami Center
Wed 10:27:42 AM 25.5019 -80.0750 270° West 275 316 22,100  Level Miami Center
Wed 10:28:42 AM 25.5019 -80.1603 270° West 275 316 22,100  Level Miami Center
Wed 10:29:42 AM 25.5022 -80.2431 270° West 275 316 22,100  Level Miami Center
Wed 10:30:42 AM 25.5025 -80.3261 270° West 270 311 22,100  Level Miami Center
Wed 10:31:42 AM 25.5003 -80.4133 268° West 270 311 22,100 -350 Level Miami Center
Wed 10:32:42 AM 25.5000 -80.5100 270° West 275 316 21,400 -650 Descending Miami Center
Wed 10:33:42 AM 25.5000 -80.5906 270° West 290 334 20,800 -600 Descending Miami Center
Wed 10:34:42 AM 25.4997 -80.6894 270° West 296 341 20,200 -550 Descending Miami Center
Wed 10:35:42 AM 25.4994 -80.7722 270° West 296 341 19,700 -500 Descending Miami Center
Wed 10:36:42 AM 25.4992 -80.8622 270° West 296 341 19,200 -350 Descending Miami Center
Wed 10:37:42 AM 25.4989 -80.9494 270° West 290 334 19,000 -450 Descending Miami Center
Wed 10:38:42 AM 25.4986 -81.0369 270° West 290 334 18,300 -850 Descending Miami Center
Wed 10:39:42 AM 25.4981 -81.1267 270° West 290 334 17,300 -1,250 Descending Miami Center
Wed 10:40:42 AM 25.4975 -81.2211 270° West 290 334 15,800 -1,500 Descending Miami Center
Wed 10:41:42 AM 25.4925 -81.3106 266° West 296 341 14,300 -1,450 Descending Miami Center
Wed 10:42:42 AM 25.4900 -81.3981 268° West 290 334 12,900 -1,450 Descending Miami Center
Wed 10:43:42 AM 25.4872 -81.4831 268° West 290 334 11,400 -1,450 Descending Miami Center
Wed 10:44:42 AM 25.4806 -81.5631 265° West 280 322 10,000 -1,450 Descending Miami Center
Wed 10:45:42 AM 25.4778 -81.6528 268° West 274 315 8,500 -1,400 Descending Miami Center
Wed 10:46:42 AM 25.4878 -81.7244 279° West 268 308 7,200 -1,350 Descending Miami Center
Wed 10:47:42 AM 25.5564 -81.7389 349° North 211 243 5,800 -1,400 Descending Miami Center
Wed 10:48:42 AM 25.6250 -81.7439 356° North 210 242 4,400 -800 Descending Miami Center
Wed 10:49:42 AM 25.6875 -81.7464 358° North 234 269 4,200 -150 Descending Miami Center
Wed 10:50:42 AM 25.7503 -81.7489 358° North 234 269 4,100 -50 Descending Miami Center
Wed 10:51:42 AM 25.8111 -81.7400 North 228 262 4,100 -450 Level Miami Center
Wed 10:52:42 AM 25.8781 -81.7311 North 228 262 3,200 -650 Descending Miami Center
Wed 10:53:42 AM 25.9431 -81.7222 North 234 269 2,800 -550 Descending Miami Center
Wed 10:54:42 AM 26.0061 -81.7131 North 234 269 2,100 -500 Descending Miami Center
Wed 10:55:42 AM 26.0625 -81.7156 358° North 214 246 1,800 -300 Descending Miami Center
Wed 10:56:42 AM 26.1136 -81.7475 331° Northwest 190 219 1,500 -400 Descending Miami Center
Wed 10:57:42 AM 26.1556 -81.7400 North 150 173 1,000 -500 Descending Miami Center
Wed 10:58:42 AM 26.1842 -81.7550 335° Northwest 121 139 500 1,500 Descending Miami Center
Wed 10:59:42 AM 26.2153 -81.7633 346° North 121 139 4,000 3,500 Climbing Miami Center

Login

Don't have an account? Register now (free) for customized features, flight alerts, and more!